Time;durP1;ratioP1;P1;durP2;ratioP2;P2;SDS_P1;SDS_P2;PMS_P1;PMS_P2;Temp;Humidity;BMP_temperature;BMP_pressure;BME280_temperature;BME280_humidity;BME280_pressure;Samples;Min_cycle;Max_cycle;Signal;HPM_P1;HPM_P2
2022/12/16 00:00:47;;;;;;;9.77;4.53;;;;;;;3.82;100.00;99196.91;6373198;27;20085;-76
2022/12/16 00:03:50;;;;;;;6.10;4.22;;;;;;;3.76;100.00;99178.31;6390575;27;20112;-76
2022/12/16 00:06:50;;;;;;;10.65;5.50;;;;;;;3.84;100.00;99187.38;6374530;27;20051;-77
2022/12/16 00:09:51;;;;;;;9.43;5.97;;;;;;;3.90;100.00;99183.66;6373190;27;20051;-76
2022/12/16 00:12:52;;;;;;;17.25;5.90;;;;;;;3.85;100.00;99193.38;6373457;27;20123;-76
2022/12/16 00:15:53;;;;;;;5.93;3.80;;;;;;;3.92;100.00;99201.66;6373060;27;20047;-76
2022/12/16 00:18:53;;;;;;;9.88;4.78;;;;;;;3.93;100.00;99190.41;6372981;27;20039;-76
2022/12/16 00:21:54;;;;;;;8.68;4.88;;;;;;;4.00;100.00;99200.38;6374226;27;20118;-76
2022/12/16 00:24:55;;;;;;;13.15;5.22;;;;;;;3.99;100.00;99187.53;6374092;27;20125;-76
2022/12/16 00:27:55;;;;;;;8.52;4.55;;;;;;;4.04;100.00;99183.00;6372776;27;20043;-76
2022/12/16 00:30:56;;;;;;;8.40;4.20;;;;;;;4.02;100.00;99180.50;6355599;27;20427;-76
2022/12/16 00:33:57;;;;;;;7.47;5.03;;;;;;;4.00;100.00;99182.31;6373887;27;20035;-76
2022/12/16 00:36:58;;;;;;;12.75;6.07;;;;;;;4.10;100.00;99174.13;6372551;27;20043;-76
2022/12/16 00:40:01;;;;;;;6.90;4.22;;;;;;;4.10;100.00;99172.41;6373611;27;20063;-76
2022/12/16 00:43:02;;;;;;;7.65;5.03;;;;;;;4.16;100.00;99172.09;6372483;27;20031;-79
2022/12/16 00:46:03;;;;;;;10.20;5.90;;;;;;;4.17;100.00;99167.75;6372251;27;20062;-79
2022/12/16 00:49:04;;;;;;;6.57;4.45;;;;;;;4.16;100.00;99172.09;6336282;28;20089;-76
2022/12/16 00:52:07;;;;;;;4.97;3.50;;;;;;;4.12;100.00;99165.41;6356308;27;20047;-77
2022/12/16 00:55:08;;;;;;;7.13;3.95;;;;;;;4.20;100.00;99162.44;6346690;28;20047;-77
2022/12/16 00:58:09;;;;;;;9.15;4.90;;;;;;;4.21;100.00;99154.63;6346674;28;20039;-77
2022/12/16 01:01:10;;;;;;;8.82;4.82;;;;;;;4.22;100.00;99153.72;6346598;28;20059;-77
2022/12/16 01:04:11;;;;;;;7.32;3.72;;;;;;;4.13;100.00;99153.34;6347565;28;20092;-77
2022/12/16 01:07:12;;;;;;;6.93;4.55;;;;;;;4.20;100.00;99152.09;6346189;28;20044;-76
2022/12/16 01:10:13;;;;;;;5.97;3.67;;;;;;;4.20;100.00;99160.72;6347354;28;20044;-76
2022/12/16 01:13:14;;;;;;;6.43;4.43;;;;;;;4.20;100.00;99162.44;6356706;27;20100;-76
2022/12/16 01:16:14;;;;;;;6.43;3.78;;;;;;;4.17;100.00;99162.59;6371854;27;20560;-76
2022/12/16 01:19:15;;;;;;;7.72;4.10;;;;;;;4.17;100.00;99168.59;6406115;27;20483;-76
2022/12/16 01:22:16;;;;;;;6.85;3.92;;;;;;;4.17;100.00;99170.34;6371565;27;20097;-76
2022/12/16 01:25:17;;;;;;;9.00;5.40;;;;;;;4.19;100.00;99166.75;6371299;27;20441;-76
2022/12/16 01:28:17;;;;;;;6.88;4.07;;;;;;;4.18;100.00;99166.84;6366942;27;20028;-76
2022/12/16 01:31:19;;;;;;;5.95;4.30;;;;;;;4.19;100.00;99174.50;6371253;27;20042;-76
2022/12/16 01:34:20;;;;;;;4.75;3.50;;;;;;;4.16;100.00;99172.09;6372450;27;20039;-76
2022/12/16 01:37:22;;;;;;;8.27;3.90;;;;;;;4.16;100.00;99166.06;6349122;27;20048;-76
2022/12/16 01:40:23;;;;;;;6.03;4.13;;;;;;;4.12;100.00;99162.81;6347208;28;20421;-76
2022/12/16 01:43:31;;;;;;;9.23;4.05;;;;;;;4.14;100.00;99165.31;6356628;27;20118;-76
2022/12/16 01:46:37;;;;;;;6.75;4.22;;;;;;;4.19;100.00;99166.75;6372184;27;20099;-76
2022/12/16 01:49:58;;;;;;;6.97;3.42;;;;;;;4.16;100.00;99158.31;6370970;27;20050;-76
2022/12/16 01:53:03;;;;;;;5.70;3.83;;;;;;;4.15;100.00;99160.09;6370941;27;20039;-76
2022/12/16 01:56:04;;;;;;;4.43;3.33;;;;;;;4.12;100.00;99152.50;6372058;27;20042;-76
2022/12/16 01:59:05;;;;;;;5.93;4.00;;;;;;;4.09;100.00;99157.78;6364681;27;20031;-76
2022/12/16 02:02:06;;;;;;;7.85;4.00;;;;;;;4.11;100.00;99158.56;6368418;27;20044;-76
2022/12/16 02:05:19;;;;;;;6.18;3.85;;;;;;;4.11;100.00;99153.41;6328202;28;20482;-76
2022/12/16 02:08:23;;;;;;;;;;;;;;;4.11;100.00;99155.97;6362521;27;20499;-76
2022/12/16 02:11:49;;;;;;;4.13;2.85;;;;;;;4.16;100.00;99140.25;6346140;28;19926;-76
2022/12/16 02:15:12;;;;;;;5.57;3.45;;;;;;;4.12;100.00;99131.00;6344994;28;20040;-76
2022/12/16 02:18:22;;;;;;;6.75;3.97;;;;;;;4.12;100.00;99123.25;6327855;28;20051;-76
2022/12/16 02:22:30;;;;;;;6.28;4.03;;;;;;;4.13;100.00;99114.59;6345041;28;20123;-76
2022/12/16 02:25:56;;;;;;;5.63;3.65;;;;;;;4.12;100.00;99097.44;6254905;28;20076;-76
2022/12/16 02:29:42;;;;;;;7.38;3.92;;;;;;;4.21;100.00;99084.91;6346038;28;20051;-76
2022/12/16 02:32:58;;;;;;;17.85;4.35;;;;;;;4.19;100.00;99071.22;6346002;28;20135;-76
2022/12/16 02:36:31;;;;;;;7.75;4.13;;;;;;;4.16;100.00;99055.03;6353420;28;20047;-76
2022/12/16 02:39:45;;;;;;;7.15;4.15;;;;;;;4.14;100.00;99052.56;6338230;28;20181;-76
2022/12/16 02:42:55;;;;;;;7.97;3.92;;;;;;;4.22;100.00;99037.53;6327780;28;20104;-76
2022/12/16 02:45:56;;;;;;;6.75;3.80;;;;;;;4.17;100.00;99016.25;6345951;28;20036;-76
2022/12/16 02:49:09;;;;;;;5.97;3.97;;;;;;;4.21;100.00;99004.84;6346422;28;20067;-76
2022/12/16 02:52:10;;;;;;;11.95;4.22;;;;;;;4.23;100.00;99022.84;6344596;28;20040;-76
2022/12/16 02:55:11;;;;;;;6.47;3.75;;;;;;;4.27;100.00;99037.28;6344616;28;20044;-76
2022/12/16 02:58:18;;;;;;;4.18;3.38;;;;;;;4.34;100.00;99037.78;6365231;27;20058;-76
2022/12/16 03:01:30;;;;;;;4.05;3.08;;;;;;;4.31;100.00;99050.88;6365454;28;20039;-76
2022/12/16 03:04:38;;;;;;;6.13;2.93;;;;;;;4.37;100.00;99058.31;6346750;28;20043;-76
2022/12/16 03:07:42;;;;;;;6.72;4.30;;;;;;;4.47;100.00;99035.41;6345664;28;20039;-76
2022/12/16 03:10:51;;;;;;;6.63;3.15;;;;;;;4.44;100.00;99037.22;6344006;28;20051;-76
2022/12/16 03:13:54;;;;;;;5.60;2.95;;;;;;;4.42;100.00;99033.88;6345603;28;20042;-76
2022/12/16 03:16:56;;;;;;;4.60;3.17;;;;;;;4.51;100.00;99021.41;6344244;28;20047;-77
2022/12/16 03:20:11;;;;;;;5.65;3.67;;;;;;;4.50;100.00;99032.66;6345548;28;20067;-76
2022/12/16 03:23:17;;;;;;;7.80;3.47;;;;;;;4.43;100.00;99037.34;6344350;28;20438;-76
2022/12/16 03:26:23;;;;;;;5.13;3.10;;;;;;;4.56;100.00;99037.53;6344252;28;20043;-76
2022/12/16 03:30:11;;;;;;;6.88;3.95;;;;;;;4.52;100.00;99026.50;6345401;28;20040;-77
2022/12/16 03:33:18;;;;;;;9.05;4.72;;;;;;;4.48;100.00;99009.50;6326276;28;20056;-76
2022/12/16 03:36:25;;;;;;;7.78;4.10;;;;;;;4.41;100.00;98990.09;6349935;28;20047;-76
2022/12/16 03:39:27;;;;;;;4.45;3.42;;;;;;;4.44;100.00;99002.81;6349963;28;20126;-76
2022/12/16 03:42:29;;;;;;;10.25;4.60;;;;;;;4.44;100.00;99001.06;6382817;27;20044;-76
2022/12/16 03:45:36;;;;;;;6.32;4.07;;;;;;;4.34;100.00;98992.13;6349550;28;20072;-76
2022/12/16 03:48:45;;;;;;;4.35;2.95;;;;;;;4.43;100.00;98998.59;6348474;28;20043;-76
2022/12/16 03:51:45;;;;;;;7.30;3.65;;;;;;;4.50;100.00;98992.16;6365128;27;20043;-76
2022/12/16 03:54:46;;;;;;;6.15;3.35;;;;;;;4.52;100.00;98990.34;6349384;28;20070;-76
2022/12/16 03:57:47;;;;;;;8.27;4.22;;;;;;;4.51;100.00;98969.75;6347877;28;20484;-76
2022/12/16 04:00:48;;;;;;;5.65;3.65;;;;;;;4.50;100.00;98968.91;6348119;28;20044;-76
2022/12/16 04:03:49;;;;;;;9.13;4.60;;;;;;;4.50;100.00;98962.94;6382320;27;20036;-76
2022/12/16 04:07:19;;;;;;;11.55;4.03;;;;;;;4.41;100.00;98951.34;6349008;28;20044;-76
2022/12/16 04:10:10;;;;;;;6.32;3.47;;;;;;;4.39;100.00;98945.44;6348714;28;20067;-76
2022/12/16 04:26:29;;;;;;;5.85;3.47;;;;;;;4.50;100.00;98911.25;6349056;28;20044;-76
2022/12/16 04:29:30;;;;;;;6.50;3.65;;;;;;;4.54;100.00;98923.09;6348636;28;20039;-76
2022/12/16 04:34:24;;;;;;;8.10;4.20;;;;;;;4.49;100.00;98909.56;6347267;28;20039;-75
